sensor_id;sensor_type;location;lat;lon;timestamp;P1;durP1;ratioP1;P2;durP2;ratioP2
49978;SDS011;35869;50.990;6.962;2022-09-09T00:12:23;2.28;;;1.05;;
49978;SDS011;35869;50.990;6.962;2022-09-09T00:23:24;2.60;;;1.00;;
49978;SDS011;35869;50.990;6.962;2022-09-09T00:28:28;2.65;;;0.88;;
49978;SDS011;35869;50.990;6.962;2022-09-09T00:33:29;2.78;;;1.10;;
49978;SDS011;35869;50.990;6.962;2022-09-09T00:38:35;1.23;;;0.95;;
49978;SDS011;35869;50.990;6.962;2022-09-09T00:43:38;2.28;;;0.90;;
49978;SDS011;35869;50.990;6.962;2022-09-09T00:48:47;1.70;;;0.80;;
49978;SDS011;35869;50.990;6.962;2022-09-09T01:04:33;6.70;;;0.90;;
49978;SDS011;35869;50.990;6.962;2022-09-09T01:09:43;4.15;;;0.85;;
49978;SDS011;35869;50.990;6.962;2022-09-09T01:14:54;1.63;;;0.75;;
49978;SDS011;35869;50.990;6.962;2022-09-09T01:30:42;2.67;;;0.47;;
49978;SDS011;35869;50.990;6.962;2022-09-09T01:40:45;1.42;;;0.82;;
49978;SDS011;35869;50.990;6.962;2022-09-09T01:50:47;4.38;;;0.98;;
49978;SDS011;35869;50.990;6.962;2022-09-09T02:01:02;2.40;;;1.15;;
49978;SDS011;35869;50.990;6.962;2022-09-09T02:06:26;2.40;;;0.70;;
49978;SDS011;35869;50.990;6.962;2022-09-09T02:11:30;2.90;;;0.70;;
49978;SDS011;35869;50.990;6.962;2022-09-09T02:21:40;1.70;;;0.90;;
49978;SDS011;35869;50.990;6.962;2022-09-09T02:26:44;3.00;;;1.17;;
49978;SDS011;35869;50.990;6.962;2022-09-09T02:31:47;1.98;;;1.13;;
49978;SDS011;35869;50.990;6.962;2022-09-09T02:36:49;2.42;;;1.17;;
49978;SDS011;35869;50.990;6.962;2022-09-09T02:41:52;3.13;;;1.23;;
49978;SDS011;35869;50.990;6.962;2022-09-09T02:52:14;4.28;;;1.23;;
49978;SDS011;35869;50.990;6.962;2022-09-09T02:57:36;4.03;;;1.10;;
49978;SDS011;35869;50.990;6.962;2022-09-09T03:02:36;2.50;;;1.30;;
49978;SDS011;35869;50.990;6.962;2022-09-09T03:07:37;3.78;;;1.23;;
49978;SDS011;35869;50.990;6.962;2022-09-09T03:12:37;3.53;;;1.25;;
49978;SDS011;35869;50.990;6.962;2022-09-09T03:17:37;2.53;;;1.27;;
49978;SDS011;35869;50.990;6.962;2022-09-09T03:27:38;4.13;;;1.35;;
49978;SDS011;35869;50.990;6.962;2022-09-09T03:32:38;3.42;;;1.30;;
49978;SDS011;35869;50.990;6.962;2022-09-09T03:37:38;2.42;;;1.45;;
49978;SDS011;35869;50.990;6.962;2022-09-09T03:42:38;2.40;;;1.13;;
49978;SDS011;35869;50.990;6.962;2022-09-09T03:52:40;6.07;;;1.53;;
49978;SDS011;35869;50.990;6.962;2022-09-09T03:57:40;4.07;;;1.30;;
49978;SDS011;35869;50.990;6.962;2022-09-09T04:02:41;7.22;;;1.38;;
49978;SDS011;35869;50.990;6.962;2022-09-09T04:07:41;3.00;;;1.30;;
49978;SDS011;35869;50.990;6.962;2022-09-09T04:12:41;4.53;;;1.52;;
49978;SDS011;35869;50.990;6.962;2022-09-09T04:17:41;4.18;;;1.25;;
49978;SDS011;35869;50.990;6.962;2022-09-09T04:22:42;2.15;;;1.48;;
49978;SDS011;35869;50.990;6.962;2022-09-09T04:27:42;7.32;;;1.63;;
49978;SDS011;35869;50.990;6.962;2022-09-09T04:32:42;4.32;;;1.10;;
49978;SDS011;35869;50.990;6.962;2022-09-09T04:37:42;3.67;;;1.50;;
49978;SDS011;35869;50.990;6.962;2022-09-09T04:42:43;6.88;;;1.48;;
49978;SDS011;35869;50.990;6.962;2022-09-09T04:47:43;3.63;;;1.33;;
49978;SDS011;35869;50.990;6.962;2022-09-09T04:52:43;4.03;;;1.35;;
49978;SDS011;35869;50.990;6.962;2022-09-09T04:57:43;3.13;;;1.37;;
49978;SDS011;35869;50.990;6.962;2022-09-09T05:02:43;4.25;;;1.45;;
49978;SDS011;35869;50.990;6.962;2022-09-09T05:07:44;3.35;;;1.63;;
49978;SDS011;35869;50.990;6.962;2022-09-09T05:12:51;3.80;;;1.43;;
49978;SDS011;35869;50.990;6.962;2022-09-09T05:17:52;3.95;;;1.58;;
49978;SDS011;35869;50.990;6.962;2022-09-09T05:22:57;3.08;;;1.58;;
49978;SDS011;35869;50.990;6.962;2022-09-09T05:27:57;5.05;;;1.90;;
49978;SDS011;35869;50.990;6.962;2022-09-09T05:38:01;7.05;;;1.75;;
49978;SDS011;35869;50.990;6.962;2022-09-09T05:43:01;3.42;;;1.35;;
49978;SDS011;35869;50.990;6.962;2022-09-09T05:48:01;4.22;;;1.30;;
49978;SDS011;35869;50.990;6.962;2022-09-09T05:53:01;3.15;;;1.10;;
49978;SDS011;35869;50.990;6.962;2022-09-09T05:58:02;6.13;;;1.70;;
49978;SDS011;35869;50.990;6.962;2022-09-09T06:03:02;5.95;;;1.73;;
49978;SDS011;35869;50.990;6.962;2022-09-09T06:08:02;5.38;;;1.23;;
49978;SDS011;35869;50.990;6.962;2022-09-09T06:18:03;3.30;;;1.08;;
49978;SDS011;35869;50.990;6.962;2022-09-09T06:23:03;5.72;;;1.40;;
49978;SDS011;35869;50.990;6.962;2022-09-09T06:28:03;3.92;;;1.65;;
49978;SDS011;35869;50.990;6.962;2022-09-09T06:33:04;2.53;;;1.00;;
49978;SDS011;35869;50.990;6.962;2022-09-09T06:38:04;9.75;;;1.75;;
49978;SDS011;35869;50.990;6.962;2022-09-09T06:43:04;2.55;;;1.20;;
49978;SDS011;35869;50.990;6.962;2022-09-09T06:48:04;2.65;;;1.38;;
49978;SDS011;35869;50.990;6.962;2022-09-09T06:53:05;1.85;;;0.75;;
49978;SDS011;35869;50.990;6.962;2022-09-09T06:58:08;3.88;;;1.15;;
49978;SDS011;35869;50.990;6.962;2022-09-09T07:03:09;2.20;;;1.42;;
49978;SDS011;35869;50.990;6.962;2022-09-09T07:08:10;2.15;;;1.17;;
49978;SDS011;35869;50.990;6.962;2022-09-09T07:18:11;4.53;;;1.23;;
49978;SDS011;35869;50.990;6.962;2022-09-09T07:23:11;3.17;;;1.50;;
49978;SDS011;35869;50.990;6.962;2022-09-09T07:28:11;3.55;;;1.83;;
49978;SDS011;35869;50.990;6.962;2022-09-09T07:33:11;5.70;;;1.37;;
49978;SDS011;35869;50.990;6.962;2022-09-09T07:38:11;4.67;;;1.77;;
49978;SDS011;35869;50.990;6.962;2022-09-09T07:43:12;5.95;;;1.35;;
49978;SDS011;35869;50.990;6.962;2022-09-09T07:48:12;4.88;;;1.30;;
49978;SDS011;35869;50.990;6.962;2022-09-09T07:53:12;4.60;;;1.25;;
49978;SDS011;35869;50.990;6.962;2022-09-09T07:58:12;8.40;;;1.70;;
49978;SDS011;35869;50.990;6.962;2022-09-09T08:03:13;6.95;;;1.45;;
49978;SDS011;35869;50.990;6.962;2022-09-09T08:08:13;6.13;;;1.85;;
49978;SDS011;35869;50.990;6.962;2022-09-09T08:13:13;5.15;;;1.23;;
49978;SDS011;35869;50.990;6.962;2022-09-09T08:18:13;4.90;;;1.42;;
49978;SDS011;35869;50.990;6.962;2022-09-09T08:23:14;4.78;;;1.42;;
49978;SDS011;35869;50.990;6.962;2022-09-09T08:28:14;4.18;;;1.33;;
49978;SDS011;35869;50.990;6.962;2022-09-09T08:33:14;6.23;;;1.57;;
49978;SDS011;35869;50.990;6.962;2022-09-09T08:38:14;1.70;;;1.20;;
49978;SDS011;35869;50.990;6.962;2022-09-09T08:43:14;4.73;;;2.03;;
49978;SDS011;35869;50.990;6.962;2022-09-09T08:53:35;5.03;;;0.80;;
49978;SDS011;35869;50.990;6.962;2022-09-09T08:58:45;3.33;;;1.20;;
49978;SDS011;35869;50.990;6.962;2022-09-09T09:03:57;3.47;;;1.02;;
49978;SDS011;35869;50.990;6.962;2022-09-09T09:14:34;2.45;;;0.90;;
49978;SDS011;35869;50.990;6.962;2022-09-09T09:19:38;2.55;;;0.95;;
49978;SDS011;35869;50.990;6.962;2022-09-09T09:29:52;5.40;;;1.38;;
49978;SDS011;35869;50.990;6.962;2022-09-09T09:34:56;4.15;;;1.10;;
49978;SDS011;35869;50.990;6.962;2022-09-09T09:45:16;3.72;;;1.00;;
49978;SDS011;35869;50.990;6.962;2022-09-09T09:50:26;2.40;;;1.00;;
49978;SDS011;35869;50.990;6.962;2022-09-09T09:55:26;3.57;;;1.33;;
49978;SDS011;35869;50.990;6.962;2022-09-09T10:00:30;3.15;;;1.15;;
49978;SDS011;35869;50.990;6.962;2022-09-09T10:05:30;2.53;;;0.80;;
49978;SDS011;35869;50.990;6.962;2022-09-09T10:26:48;3.00;;;0.55;;
49978;SDS011;35869;50.990;6.962;2022-09-09T10:32:03;4.88;;;1.33;;
49978;SDS011;35869;50.990;6.962;2022-09-09T10:42:38;3.03;;;1.48;;
49978;SDS011;35869;50.990;6.962;2022-09-09T10:47:57;2.58;;;1.13;;
49978;SDS011;35869;50.990;6.962;2022-09-09T10:53:22;4.82;;;1.00;;
49978;SDS011;35869;50.990;6.962;2022-09-09T10:58:27;4.18;;;0.93;;
49978;SDS011;35869;50.990;6.962;2022-09-09T11:03:31;2.00;;;0.80;;
49978;SDS011;35869;50.990;6.962;2022-09-09T11:08:36;2.65;;;0.65;;
49978;SDS011;35869;50.990;6.962;2022-09-09T11:13:46;1.20;;;0.80;;
49978;SDS011;35869;50.990;6.962;2022-09-09T11:18:57;2.60;;;0.70;;
49978;SDS011;35869;50.990;6.962;2022-09-09T11:24:03;1.98;;;0.80;;
49978;SDS011;35869;50.990;6.962;2022-09-09T11:34:33;1.38;;;0.70;;
49978;SDS011;35869;50.990;6.962;2022-09-09T11:45:11;2.60;;;0.80;;
49978;SDS011;35869;50.990;6.962;2022-09-09T12:05:41;1.88;;;0.50;;
49978;SDS011;35869;50.990;6.962;2022-09-09T12:10:52;2.17;;;0.68;;
49978;SDS011;35869;50.990;6.962;2022-09-09T12:15:58;2.33;;;1.05;;
49978;SDS011;35869;50.990;6.962;2022-09-09T12:21:06;4.32;;;1.23;;
49978;SDS011;35869;50.990;6.962;2022-09-09T12:36:27;3.78;;;0.95;;
49978;SDS011;35869;50.990;6.962;2022-09-09T12:41:30;3.08;;;1.08;;
49978;SDS011;35869;50.990;6.962;2022-09-09T12:51:44;2.65;;;0.95;;
49978;SDS011;35869;50.990;6.962;2022-09-09T12:56:45;1.75;;;0.57;;
49978;SDS011;35869;50.990;6.962;2022-09-09T13:01:54;3.50;;;0.85;;
49978;SDS011;35869;50.990;6.962;2022-09-09T13:07:07;3.03;;;0.97;;
49978;SDS011;35869;50.990;6.962;2022-09-09T13:12:11;1.83;;;0.93;;
49978;SDS011;35869;50.990;6.962;2022-09-09T13:17:21;3.13;;;1.05;;
49978;SDS011;35869;50.990;6.962;2022-09-09T13:22:34;3.25;;;0.93;;
49978;SDS011;35869;50.990;6.962;2022-09-09T13:27:39;3.85;;;0.90;;
49978;SDS011;35869;50.990;6.962;2022-09-09T13:32:41;2.10;;;0.70;;
49978;SDS011;35869;50.990;6.962;2022-09-09T13:37:41;1.83;;;1.00;;
49978;SDS011;35869;50.990;6.962;2022-09-09T13:42:41;3.83;;;1.05;;
49978;SDS011;35869;50.990;6.962;2022-09-09T13:47:42;4.50;;;1.30;;
49978;SDS011;35869;50.990;6.962;2022-09-09T13:52:42;2.38;;;0.80;;
49978;SDS011;35869;50.990;6.962;2022-09-09T14:02:54;2.75;;;0.75;;
49978;SDS011;35869;50.990;6.962;2022-09-09T14:07:55;0.90;;;0.52;;
49978;SDS011;35869;50.990;6.962;2022-09-09T14:12:55;2.53;;;0.73;;
49978;SDS011;35869;50.990;6.962;2022-09-09T14:17:55;2.58;;;0.88;;
49978;SDS011;35869;50.990;6.962;2022-09-09T14:22:56;1.35;;;0.50;;
49978;SDS011;35869;50.990;6.962;2022-09-09T14:27:56;3.58;;;0.88;;
49978;SDS011;35869;50.990;6.962;2022-09-09T14:32:56;2.42;;;0.88;;
49978;SDS011;35869;50.990;6.962;2022-09-09T14:37:56;1.95;;;0.82;;
49978;SDS011;35869;50.990;6.962;2022-09-09T14:42:57;1.33;;;1.05;;
49978;SDS011;35869;50.990;6.962;2022-09-09T14:47:57;0.95;;;0.50;;
49978;SDS011;35869;50.990;6.962;2022-09-09T14:52:57;1.50;;;0.75;;
49978;SDS011;35869;50.990;6.962;2022-09-09T14:57:57;3.00;;;1.02;;
49978;SDS011;35869;50.990;6.962;2022-09-09T15:02:58;1.98;;;1.08;;
49978;SDS011;35869;50.990;6.962;2022-09-09T15:07:58;2.87;;;1.03;;
49978;SDS011;35869;50.990;6.962;2022-09-09T15:12:58;3.43;;;1.20;;
49978;SDS011;35869;50.990;6.962;2022-09-09T15:17:58;2.28;;;1.10;;
49978;SDS011;35869;50.990;6.962;2022-09-09T15:22:59;1.23;;;0.90;;
49978;SDS011;35869;50.990;6.962;2022-09-09T15:27:59;2.45;;;0.93;;
49978;SDS011;35869;50.990;6.962;2022-09-09T15:32:59;2.97;;;1.35;;
49978;SDS011;35869;50.990;6.962;2022-09-09T15:38:01;1.43;;;0.90;;
49978;SDS011;35869;50.990;6.962;2022-09-09T15:43:02;2.90;;;1.00;;
49978;SDS011;35869;50.990;6.962;2022-09-09T15:48:02;0.83;;;0.80;;
49978;SDS011;35869;50.990;6.962;2022-09-09T15:53:03;6.05;;;1.15;;
49978;SDS011;35869;50.990;6.962;2022-09-09T15:58:03;3.53;;;1.23;;
49978;SDS011;35869;50.990;6.962;2022-09-09T16:03:04;2.17;;;1.23;;
49978;SDS011;35869;50.990;6.962;2022-09-09T16:08:04;2.85;;;1.38;;
49978;SDS011;35869;50.990;6.962;2022-09-09T16:13:04;3.80;;;1.05;;
49978;SDS011;35869;50.990;6.962;2022-09-09T16:18:04;1.95;;;0.80;;
49978;SDS011;35869;50.990;6.962;2022-09-09T16:23:05;3.13;;;0.70;;
49978;SDS011;35869;50.990;6.962;2022-09-09T16:28:05;3.10;;;0.80;;
49978;SDS011;35869;50.990;6.962;2022-09-09T16:33:05;1.27;;;0.85;;
49978;SDS011;35869;50.990;6.962;2022-09-09T16:38:05;2.40;;;1.23;;
49978;SDS011;35869;50.990;6.962;2022-09-09T16:43:06;3.72;;;0.90;;
49978;SDS011;35869;50.990;6.962;2022-09-09T16:48:07;1.33;;;0.82;;
49978;SDS011;35869;50.990;6.962;2022-09-09T16:53:08;3.43;;;1.27;;
49978;SDS011;35869;50.990;6.962;2022-09-09T16:58:10;4.30;;;1.40;;
49978;SDS011;35869;50.990;6.962;2022-09-09T17:03:13;1.90;;;1.27;;
49978;SDS011;35869;50.990;6.962;2022-09-09T17:08:13;2.97;;;1.10;;
49978;SDS011;35869;50.990;6.962;2022-09-09T17:13:14;3.70;;;1.23;;
49978;SDS011;35869;50.990;6.962;2022-09-09T17:18:14;1.73;;;1.20;;
49978;SDS011;35869;50.990;6.962;2022-09-09T17:23:14;3.17;;;1.50;;
49978;SDS011;35869;50.990;6.962;2022-09-09T17:28:15;2.17;;;0.90;;
49978;SDS011;35869;50.990;6.962;2022-09-09T17:33:15;2.27;;;1.27;;
49978;SDS011;35869;50.990;6.962;2022-09-09T17:38:15;4.63;;;1.40;;
49978;SDS011;35869;50.990;6.962;2022-09-09T17:43:15;4.90;;;1.70;;
49978;SDS011;35869;50.990;6.962;2022-09-09T17:48:16;2.20;;;1.40;;
49978;SDS011;35869;50.990;6.962;2022-09-09T17:53:16;2.87;;;1.47;;
49978;SDS011;35869;50.990;6.962;2022-09-09T17:58:16;1.93;;;1.47;;
49978;SDS011;35869;50.990;6.962;2022-09-09T18:03:16;3.13;;;1.63;;
49978;SDS011;35869;50.990;6.962;2022-09-09T18:08:17;2.47;;;1.43;;
49978;SDS011;35869;50.990;6.962;2022-09-09T18:13:17;3.20;;;1.83;;
49978;SDS011;35869;50.990;6.962;2022-09-09T18:18:17;2.50;;;1.70;;
49978;SDS011;35869;50.990;6.962;2022-09-09T18:23:17;2.40;;;1.57;;
49978;SDS011;35869;50.990;6.962;2022-09-09T18:28:18;4.23;;;1.80;;
49978;SDS011;35869;50.990;6.962;2022-09-09T18:33:19;3.30;;;1.73;;
49978;SDS011;35869;50.990;6.962;2022-09-09T18:38:19;2.60;;;1.33;;
49978;SDS011;35869;50.990;6.962;2022-09-09T18:43:19;2.75;;;1.73;;
49978;SDS011;35869;50.990;6.962;2022-09-09T18:48:20;4.37;;;1.60;;
49978;SDS011;35869;50.990;6.962;2022-09-09T18:53:20;5.67;;;1.73;;
49978;SDS011;35869;50.990;6.962;2022-09-09T18:58:20;4.43;;;1.75;;
49978;SDS011;35869;50.990;6.962;2022-09-09T19:03:20;4.27;;;1.70;;
49978;SDS011;35869;50.990;6.962;2022-09-09T19:08:21;3.33;;;1.60;;
49978;SDS011;35869;50.990;6.962;2022-09-09T19:13:21;2.30;;;1.38;;
49978;SDS011;35869;50.990;6.962;2022-09-09T19:18:22;4.47;;;1.83;;
49978;SDS011;35869;50.990;6.962;2022-09-09T19:23:22;3.60;;;1.80;;
49978;SDS011;35869;50.990;6.962;2022-09-09T19:28:22;4.00;;;1.58;;
49978;SDS011;35869;50.990;6.962;2022-09-09T19:33:22;5.03;;;2.15;;
49978;SDS011;35869;50.990;6.962;2022-09-09T19:38:23;5.30;;;2.35;;
49978;SDS011;35869;50.990;6.962;2022-09-09T19:43:23;5.10;;;2.57;;
49978;SDS011;35869;50.990;6.962;2022-09-09T19:48:24;4.03;;;2.13;;
49978;SDS011;35869;50.990;6.962;2022-09-09T19:53:24;6.03;;;2.20;;
49978;SDS011;35869;50.990;6.962;2022-09-09T19:58:25;2.42;;;1.58;;
49978;SDS011;35869;50.990;6.962;2022-09-09T20:03:25;3.80;;;1.57;;
49978;SDS011;35869;50.990;6.962;2022-09-09T20:08:25;2.55;;;1.75;;
49978;SDS011;35869;50.990;6.962;2022-09-09T20:13:27;2.97;;;1.52;;
49978;SDS011;35869;50.990;6.962;2022-09-09T20:18:32;5.65;;;1.65;;
49978;SDS011;35869;50.990;6.962;2022-09-09T20:23:34;3.47;;;1.60;;
49978;SDS011;35869;50.990;6.962;2022-09-09T20:33:36;4.00;;;1.80;;
49978;SDS011;35869;50.990;6.962;2022-09-09T20:38:44;2.78;;;1.83;;
49978;SDS011;35869;50.990;6.962;2022-09-09T20:43:53;1.58;;;1.40;;
49978;SDS011;35869;50.990;6.962;2022-09-09T20:48:54;3.83;;;1.70;;
49978;SDS011;35869;50.990;6.962;2022-09-09T20:59:00;5.18;;;2.08;;
49978;SDS011;35869;50.990;6.962;2022-09-09T21:09:00;2.08;;;1.20;;
49978;SDS011;35869;50.990;6.962;2022-09-09T21:14:01;3.20;;;1.60;;
49978;SDS011;35869;50.990;6.962;2022-09-09T21:19:02;2.80;;;1.50;;
49978;SDS011;35869;50.990;6.962;2022-09-09T21:29:02;6.10;;;1.20;;
49978;SDS011;35869;50.990;6.962;2022-09-09T21:34:03;2.83;;;1.20;;
49978;SDS011;35869;50.990;6.962;2022-09-09T21:39:03;4.25;;;1.73;;
49978;SDS011;35869;50.990;6.962;2022-09-09T21:49:04;4.38;;;1.88;;
49978;SDS011;35869;50.990;6.962;2022-09-09T21:54:04;3.13;;;1.58;;
49978;SDS011;35869;50.990;6.962;2022-09-09T21:59:04;3.75;;;1.60;;
49978;SDS011;35869;50.990;6.962;2022-09-09T22:04:04;3.42;;;1.98;;
49978;SDS011;35869;50.990;6.962;2022-09-09T22:09:05;6.07;;;2.20;;
49978;SDS011;35869;50.990;6.962;2022-09-09T22:14:05;5.85;;;1.80;;
49978;SDS011;35869;50.990;6.962;2022-09-09T22:24:05;4.70;;;1.80;;
49978;SDS011;35869;50.990;6.962;2022-09-09T22:34:06;1.30;;;1.20;;
49978;SDS011;35869;50.990;6.962;2022-09-09T22:39:06;2.70;;;1.65;;
49978;SDS011;35869;50.990;6.962;2022-09-09T22:44:07;4.95;;;2.03;;
49978;SDS011;35869;50.990;6.962;2022-09-09T22:49:07;2.15;;;1.50;;
49978;SDS011;35869;50.990;6.962;2022-09-09T22:54:08;2.60;;;1.75;;
49978;SDS011;35869;50.990;6.962;2022-09-09T23:04:09;4.88;;;2.13;;
49978;SDS011;35869;50.990;6.962;2022-09-09T23:09:11;3.10;;;1.90;;
49978;SDS011;35869;50.990;6.962;2022-09-09T23:14:11;3.45;;;1.60;;
49978;SDS011;35869;50.990;6.962;2022-09-09T23:24:14;3.60;;;1.27;;
49978;SDS011;35869;50.990;6.962;2022-09-09T23:29:15;1.60;;;1.50;;
49978;SDS011;35869;50.990;6.962;2022-09-09T23:34:16;2.28;;;1.40;;
49978;SDS011;35869;50.990;6.962;2022-09-09T23:39:16;3.78;;;1.35;;
49978;SDS011;35869;50.990;6.962;2022-09-09T23:44:16;2.88;;;1.52;;
49978;SDS011;35869;50.990;6.962;2022-09-09T23:54:17;3.20;;;0.90;;
49978;SDS011;35869;50.990;6.962;2022-09-09T23:59:17;2.15;;;1.02;;
